Time;durP1;ratioP1;P1;durP2;ratioP2;P2;SDS_P1;SDS_P2;PMS_P1;PMS_P2;Temp;Humidity;BMP_temperature;BMP_pressure;BME280_temperature;BME280_humidity;BME280_pressure;Samples;Min_cycle;Max_cycle;Signal;HPM_P1;HPM_P2
2021/09/18 00:00:34;;;;;;;12.02;9.90;;;;;;;12.09;100.00;101643.25;2616586;36;20563;-77
2021/09/18 00:03:02;;;;;;;16.83;9.43;;;;;;;12.05;100.00;101650.72;2633893;36;20035;-79
2021/09/18 00:05:31;;;;;;;13.32;9.90;;;;;;;12.05;100.00;101642.63;2616407;36;20042;-78
2021/09/18 00:08:02;;;;;;;13.80;9.53;;;;;;;12.05;100.00;101645.34;2616823;31;20512;-78
2021/09/18 00:10:32;;;;;;;13.02;10.00;;;;;;;12.02;100.00;101647.44;2633675;36;20306;-78
2021/09/18 00:13:00;;;;;;;11.50;8.82;;;;;;;12.02;100.00;101637.50;2617083;31;20038;-78
2021/09/18 00:15:32;;;;;;;12.60;9.25;;;;;;;11.92;100.00;101648.16;2634643;36;20061;-79
2021/09/18 00:18:14;;;;;;;14.82;10.55;;;;;;;11.86;100.00;101651.34;2616894;31;20041;-77
2021/09/18 00:24:22;;;;;;;;;;;;;;;;;;;;;
2021/09/18 00:27:05;;;;;;;15.48;9.55;;;;;;;11.89;100.00;101658.34;2633393;36;20247;-78
2021/09/18 00:29:34;;;;;;;12.55;8.90;;;;;;;11.86;100.00;101648.66;2617072;36;20078;-79
2021/09/18 00:32:24;;;;;;;11.23;8.90;;;;;;;11.75;100.00;101651.38;2616683;31;20481;-79
2021/09/18 00:35:07;;;;;;;;;;;;;;;;;;;;;
2021/09/18 00:37:36;;;;;;;12.77;10.00;;;;;;;11.74;100.00;101661.28;2634228;36;20042;-79
2021/09/18 00:40:10;;;;;;;15.50;9.63;;;;;;;11.75;100.00;101656.78;2616701;36;20043;-76
2021/09/18 00:42:42;;;;;;;13.70;10.15;;;;;;;11.73;100.00;101647.94;2616467;36;20280;-76
2021/09/18 00:45:12;;;;;;;17.55;10.20;;;;;;;11.70;100.00;101659.84;2616455;36;20034;-77
2021/09/18 00:47:47;;;;;;;14.77;9.60;;;;;;;11.65;100.00;101655.81;2634268;36;20051;-76
2021/09/18 00:50:18;;;;;;;11.38;8.98;;;;;;;11.52;100.00;101662.16;2634662;36;20034;-79
2021/09/18 00:52:49;;;;;;;12.85;9.27;;;;;;;11.56;100.00;101663.63;2616784;36;20059;-76
2021/09/18 00:55:19;;;;;;;12.48;9.73;;;;;;;11.58;100.00;101666.22;2635553;36;20046;-77
2021/09/18 00:57:48;;;;;;;13.95;9.20;;;;;;;11.59;100.00;101659.84;2616923;36;20554;-76
2021/09/18 01:00:38;;;;;;;12.10;9.25;;;;;;;11.60;100.00;101668.78;2617271;36;20080;-78
2021/09/18 01:03:10;;;;;;;13.85;9.25;;;;;;;11.55;100.00;101664.59;2635274;36;20186;-77
2021/09/18 01:05:42;;;;;;;11.52;9.65;;;;;;;11.51;100.00;101673.94;2616445;36;20031;-78
2021/09/18 01:08:17;;;;;;;12.20;9.52;;;;;;;11.48;100.00;101670.63;2617984;36;20431;-78
2021/09/18 01:10:55;;;;;;;;;;;;;;;;;;;;;
2021/09/18 01:13:47;;;;;;;14.63;9.98;;;;;;;11.40;100.00;101668.53;2633746;36;20023;-77
2021/09/18 01:16:50;;;;;;;14.00;9.98;;;;;;;11.37;100.00;101672.34;2652518;36;20611;-78
2021/09/18 01:19:34;;;;;;;10.98;9.48;;;;;;;11.39;100.00;101674.91;2634423;36;20117;-79
2021/09/18 01:22:25;;;;;;;11.70;9.38;;;;;;;11.37;100.00;101672.34;2634579;36;20035;-80
2021/09/18 01:24:57;;;;;;;15.90;9.18;;;;;;;11.34;100.00;101669.03;2636315;36;20514;-77
2021/09/18 01:27:25;;;;;;;12.07;8.95;;;;;;;11.34;100.00;101669.03;2616157;36;20029;-77
2021/09/18 01:30:15;;;;;;;11.60;9.05;;;;;;;11.33;100.00;101667.31;2617001;36;20030;-76
2021/09/18 01:32:45;;;;;;;13.95;9.10;;;;;;;11.36;100.00;101672.44;2634574;36;20030;-77
2021/09/18 01:35:15;;;;;;;12.50;9.50;;;;;;;11.29;100.00;101665.84;2617249;36;20031;-77
2021/09/18 01:37:49;;;;;;;14.45;9.88;;;;;;;11.21;100.00;101663.75;2616752;31;20078;-79
2021/09/18 01:40:23;;;;;;;13.45;10.18;;;;;;;11.21;100.00;101669.97;2632917;36;20057;-77
2021/09/18 01:42:51;;;;;;;10.88;9.63;;;;;;;11.11;100.00;101663.59;2616490;36;20030;-76
2021/09/18 01:45:20;;;;;;;13.05;10.15;;;;;;;11.14;100.00;101663.34;2616436;36;20614;-79
2021/09/18 01:47:52;;;;;;;13.45;9.57;;;;;;;11.16;100.00;101657.84;2616831;36;20102;-80
2021/09/18 01:50:28;;;;;;;15.13;9.93;;;;;;;11.09;100.00;101654.78;2617116;36;20027;-76
2021/09/18 01:53:00;;;;;;;12.38;8.93;;;;;;;11.13;100.00;101663.47;2616619;36;20050;-77
2021/09/18 01:55:31;;;;;;;13.07;9.45;;;;;;;11.12;100.00;101654.53;2616762;36;20042;-77
2021/09/18 01:58:01;;;;;;;13.73;8.75;;;;;;;11.10;100.00;101656.50;2617322;36;20081;-80
2021/09/18 02:00:30;;;;;;;15.13;9.23;;;;;;;11.09;100.00;101651.25;2616492;36;20065;-80
2021/09/18 02:03:07;;;;;;;14.77;9.60;;;;;;;11.17;100.00;101663.16;2617250;36;20045;-77
2021/09/18 02:05:35;;;;;;;10.35;9.20;;;;;;;11.13;100.00;101663.47;2616805;31;20023;-79
2021/09/18 02:08:04;;;;;;;13.40;9.00;;;;;;;11.10;100.00;101658.34;2617078;36;20026;-77
2021/09/18 02:10:35;;;;;;;13.40;8.68;;;;;;;11.12;100.00;101664.47;2616197;31;20046;-78
2021/09/18 02:13:38;;;;;;;13.57;8.75;;;;;;;11.05;100.00;101658.69;2617178;36;20483;-78
2021/09/18 02:18:59;;;;;;;10.55;8.55;;;;;;;11.27;100.00;101647.09;2616272;36;20069;-76
2021/09/18 02:21:39;;;;;;;;;;;;;;;;;;;;;
2021/09/18 02:24:13;;;;;;;16.08;9.07;;;;;;;11.49;100.00;101654.31;2616834;36;20035;-79
2021/09/18 02:26:43;;;;;;;13.25;10.05;;;;;;;11.49;100.00;101654.31;2634350;36;20550;-76
2021/09/18 02:29:16;;;;;;;15.93;10.30;;;;;;;11.50;100.00;101653.34;2616558;31;20057;-76
2021/09/18 02:31:59;;;;;;;;;;;;;;;;;;;;;
2021/09/18 02:34:27;;;;;;;17.27;10.68;;;;;;;11.57;100.00;101643.78;2633658;36;20418;-79
2021/09/18 02:37:06;;;;;;;16.20;11.33;;;;;;;11.67;100.00;101643.88;2633891;36;20023;-79
2021/09/18 02:39:39;;;;;;;14.57;11.35;;;;;;;11.73;100.00;101645.25;2634208;36;20090;-76
2021/09/18 02:42:10;;;;;;;16.40;10.70;;;;;;;11.74;100.00;101644.25;2616167;36;20034;-77
2021/09/18 02:44:41;;;;;;;20.55;11.70;;;;;;;11.80;100.00;101638.38;2634824;36;20030;-78
2021/09/18 02:50:13;;;;;;;12.48;9.70;;;;;;;11.92;100.00;101645.47;2621215;36;20073;-76
2021/09/18 02:52:43;;;;;;;21.42;11.18;;;;;;;12.02;100.00;101648.28;2633713;36;20037;-76
2021/09/18 02:55:34;;;;;;;54.67;15.40;;;;;;;12.06;100.00;101643.50;2633474;36;20030;-77
2021/09/18 02:58:25;;;;;;;75.22;17.95;;;;;;;12.14;100.00;101638.31;2634227;36;20046;-78
2021/09/18 03:01:14;;;;;;;64.07;17.63;;;;;;;12.15;100.00;101641.91;2617986;36;20025;-77
2021/09/18 03:03:44;;;;;;;;;;;;;;;12.24;100.00;101641.97;2617387;31;20526;-78
2021/09/18 03:06:14;;;;;;;33.63;14.13;;;;;;;12.30;100.00;101637.06;2616125;36;20463;-77
2021/09/18 03:08:46;;;;;;;40.95;16.10;;;;;;;12.36;100.00;101636.53;2618158;36;20128;-76
2021/09/18 03:11:27;;;;;;;34.92;14.27;;;;;;;12.43;100.00;101645.84;2616640;36;20053;-78
2021/09/18 03:14:00;;;;;;;44.70;16.83;;;;;;;12.52;100.00;101639.66;2616667;36;20077;-76
2021/09/18 03:17:08;;;;;;;40.03;16.55;;;;;;;12.56;100.00;101638.41;2633826;36;20034;-80
2021/09/18 03:19:37;;;;;;;39.05;16.02;;;;;;;12.58;100.00;101644.53;2634189;36;20026;-77
2021/09/18 03:22:18;;;;;;;;;;;;;;;;;;;;;
2021/09/18 03:25:01;;;;;;;49.63;17.33;;;;;;;12.50;100.00;101636.25;2634620;36;20045;-76
2021/09/18 03:27:34;;;;;;;54.20;17.45;;;;;;;12.60;100.00;101637.19;2633728;36;20043;-78
2021/09/18 03:30:21;;;;;;;37.88;17.65;;;;;;;12.67;100.00;101642.91;2631285;36;20434;-78
2021/09/18 03:33:15;;;;;;;32.40;16.35;;;;;;;12.72;100.00;101631.69;2617584;31;21190;-76
2021/09/18 03:38:38;;;;;;;;;;;;;;;;;;;;;
2021/09/18 03:41:35;;;;;;;;;;;;;;;;;;;;;
2021/09/18 03:47:30;;;;;;;37.92;20.15;;;;;;;12.87;100.00;101643.91;2632699;31;20501;-77
2021/09/18 04:41:44;;;;;;;41.38;22.65;;;;;;;12.24;100.00;101650.06;2631361;36;20027;-77
2021/09/18 04:44:17;;;;;;;40.20;24.00;;;;;;;12.20;100.00;101651.31;2616206;36;20086;-78
2021/09/18 04:46:48;;;;;;;40.92;23.60;;;;;;;12.18;100.00;101653.28;2634630;36;20622;-77
2021/09/18 04:49:18;;;;;;;31.80;21.35;;;;;;;12.11;100.00;101646.66;2616389;36;20447;-78
2021/09/18 04:51:47;;;;;;;38.25;23.15;;;;;;;12.06;100.00;101655.16;2618658;36;20057;-77
2021/09/18 04:54:15;;;;;;;35.38;22.85;;;;;;;11.88;100.00;101656.63;2617059;36;20531;-76
2021/09/18 04:56:46;;;;;;;34.55;22.83;;;;;;;11.95;100.00;101660.56;2616446;36;20551;-78
2021/09/18 04:59:14;;;;;;;35.08;22.30;;;;;;;11.89;100.00;101661.88;2617824;36;20047;-77
2021/09/18 05:01:42;;;;;;;31.00;20.63;;;;;;;11.95;100.00;101667.81;2616887;36;20057;-77
2021/09/18 05:04:10;;;;;;;30.23;20.35;;;;;;;11.86;100.00;101664.84;2616785;36;20113;-77
2021/09/18 05:06:39;;;;;;;34.58;21.05;;;;;;;11.84;100.00;101661.41;2616658;36;20081;-76
2021/09/18 05:09:07;;;;;;;31.63;19.88;;;;;;;11.88;100.00;101668.28;2617427;36;20055;-76
2021/09/18 05:11:35;;;;;;;28.00;19.33;;;;;;;11.91;100.00;101668.03;2617091;36;20050;-78
2021/09/18 05:14:06;;;;;;;29.75;19.42;;;;;;;11.88;100.00;101670.97;2616879;36;20549;-77
2021/09/18 05:16:34;;;;;;;33.97;18.13;;;;;;;11.86;100.00;101672.94;2616705;36;20034;-77
2021/09/18 05:19:03;;;;;;;38.37;18.73;;;;;;;11.85;100.00;101684.72;2616796;36;20069;-76
2021/09/18 05:21:31;;;;;;;33.10;18.08;;;;;;;11.90;100.00;101682.50;2617280;31;20146;-77
2021/09/18 05:23:59;;;;;;;29.33;16.50;;;;;;;11.89;100.00;101680.75;2617162;36;20499;-78
2021/09/18 05:26:27;;;;;;;38.22;18.58;;;;;;;11.98;100.00;101675.66;2616870;36;20030;-76
2021/09/18 05:28:56;;;;;;;23.83;15.98;;;;;;;11.99;100.00;101680.06;2617085;31;20034;-79
2021/09/18 05:31:26;;;;;;;30.35;18.13;;;;;;;11.96;100.00;101672.22;2617367;36;20074;-77
2021/09/18 05:33:55;;;;;;;31.25;18.38;;;;;;;12.02;100.00;101679.81;2617158;36;20027;-78
2021/09/18 05:36:24;;;;;;;29.52;17.70;;;;;;;12.08;100.00;101673.91;2616860;36;20089;-76
2021/09/18 05:41:40;;;;;;;49.63;18.02;;;;;;;12.07;100.00;101677.59;2615446;54;20129;-78
2021/09/18 05:44:10;;;;;;;49.80;17.35;;;;;;;12.11;100.00;101684.44;2616516;36;20548;-78
2021/09/18 05:46:40;;;;;;;60.00;17.95;;;;;;;12.10;100.00;101682.72;2616874;36;20026;-77
2021/09/18 05:49:12;;;;;;;29.52;16.83;;;;;;;12.23;100.00;101672.66;2616270;36;20077;-77
2021/09/18 05:51:40;;;;;;;38.65;18.23;;;;;;;12.25;100.00;101676.09;2616518;36;20053;-78
2021/09/18 05:54:08;;;;;;;28.40;15.95;;;;;;;12.25;100.00;101681.47;2616331;36;20558;-77
2021/09/18 05:56:36;;;;;;;38.00;16.92;;;;;;;12.27;100.00;101687.59;2615623;36;20073;-77
2021/09/18 05:59:05;;;;;;;30.37;15.97;;;;;;;12.36;100.00;101679.72;2615910;36;20125;-77
2021/09/18 06:01:33;;;;;;;40.35;16.90;;;;;;;12.40;100.00;101684.75;2616700;36;20050;-79
2021/09/18 06:04:04;;;;;;;59.35;19.02;;;;;;;12.36;100.00;101687.84;2616802;36;20558;-76
2021/09/18 06:06:33;;;;;;;32.90;17.58;;;;;;;12.39;100.00;101687.56;2613801;36;20047;-81
2021/09/18 06:09:01;;;;;;;69.15;19.40;;;;;;;12.28;100.00;101691.16;2616469;36;20034;-76
2021/09/18 06:11:29;;;;;;;50.17;17.95;;;;;;;12.29;100.00;101702.81;2616363;36;20085;-76
2021/09/18 06:13:57;;;;;;;38.85;17.45;;;;;;;12.54;100.00;101696.22;2615947;36;20590;-76
2021/09/18 06:16:25;;;;;;;49.45;18.33;;;;;;;12.63;100.00;101698.16;2616029;36;20085;-78
2021/09/18 06:18:54;;;;;;;35.30;17.45;;;;;;;12.69;100.00;101700.34;2616999;36;20030;-79
2021/09/18 06:21:25;;;;;;;43.35;18.45;;;;;;;12.88;100.00;101698.78;2616805;36;20081;-77
2021/09/18 06:23:54;;;;;;;35.70;18.58;;;;;;;13.05;100.00;101705.47;2617503;36;20046;-77
2021/09/18 06:46:36;;;;;;;40.72;17.70;;;;;;;13.83;100.00;101705.91;2612978;36;20046;-76
2021/09/18 06:49:05;;;;;;;26.95;16.75;;;;;;;13.84;100.00;101704.91;2616778;36;20123;-76
2021/09/18 06:51:33;;;;;;;22.92;16.98;;;;;;;14.02;100.00;101700.56;2616587;31;20034;-76
2021/09/18 06:54:01;;;;;;;25.20;17.77;;;;;;;14.08;100.00;101704.56;2617414;36;20023;-78
2021/09/18 06:56:30;;;;;;;41.03;18.40;;;;;;;13.95;100.00;101704.78;2615480;31;20519;-77
2021/09/18 06:58:58;;;;;;;31.10;18.15;;;;;;;13.78;100.00;101708.16;2616626;36;20155;-76
2021/09/18 07:01:27;;;;;;;26.05;17.65;;;;;;;14.06;100.00;101716.50;2613995;36;20121;-76
2021/09/18 07:03:58;;;;;;;24.20;17.75;;;;;;;14.35;100.00;101712.03;2615229;36;20109;-77
2021/09/18 07:06:26;;;;;;;25.80;18.15;;;;;;;14.43;100.00;101710.47;2615381;36;20117;-76
2021/09/18 07:09:34;;;;;;;27.17;18.25;;;;;;;14.60;100.00;101698.94;2615133;36;20636;-75
2021/09/18 07:14:41;;;;;;;24.10;17.27;;;;;;;14.98;100.00;101699.94;2614761;36;20114;-78
2021/09/18 07:17:09;;;;;;;43.45;18.40;;;;;;;15.11;100.00;101713.22;2616394;36;20035;-77
2021/09/18 07:19:40;;;;;;;26.67;17.75;;;;;;;15.00;100.00;101699.81;2616382;36;20122;-76
2021/09/18 07:22:12;;;;;;;27.15;16.67;;;;;;;15.24;100.00;101702.91;2615948;36;20141;-79
2021/09/18 07:51:55;;;;;;;26.10;17.13;;;;;;;16.45;100.00;101710.25;2634596;36;20077;-78
2021/09/18 07:55:16;;;;;;;25.05;18.13;;;;;;;16.18;100.00;101717.44;2652945;36;20031;-80
2021/09/18 08:01:27;;;;;;;;;;;;;;;;;;;;;
2021/09/18 08:04:17;;;;;;;26.70;18.80;;;;;;;16.45;100.00;101724.69;2633641;36;20107;-79
2021/09/18 08:10:20;;;;;;;23.75;18.05;;;;;;;16.67;100.00;101725.25;2633201;36;20590;-79
2021/09/18 08:13:27;;;;;;;;;;;;;;;;;;;;;
2021/09/18 08:16:34;;;;;;;;;;;;;;;;;;;;;
2021/09/18 08:19:53;;;;;;;;;;;;;;;;;;;;;
2021/09/18 08:38:30;;;;;;;;;;;;;;;;;;;;;
2021/09/18 08:41:33;;;;;;;;;;;;;;;;;;;;;
2021/09/18 08:44:09;;;;;;;23.38;18.40;;;;;;;16.92;100.00;101733.66;2634881;36;20027;-77
2021/09/18 09:03:45;;;;;;;18.30;14.40;;;;;;;18.43;100.00;101720.53;2636620;36;20081;-78
2021/09/18 09:06:43;;;;;;;18.80;14.93;;;;;;;18.30;100.00;101715.59;2652868;36;20027;-79
2021/09/18 09:10:11;;;;;;;17.70;14.90;;;;;;;18.24;100.00;101720.84;2635324;36;20042;-79
2021/09/18 09:12:44;;;;;;;17.70;13.80;;;;;;;18.38;100.00;101722.94;2652440;36;20033;-78
2021/09/18 09:15:55;;;;;;;16.27;13.15;;;;;;;18.38;100.00;101717.47;2616769;36;20057;-77
2021/09/18 09:18:59;;;;;;;22.02;12.00;;;;;;;18.63;100.00;101714.81;2636941;36;20481;-80
2021/09/18 10:26:02;;;;;;;16.50;13.48;;;;;;;21.17;100.00;101720.38;2616114;47;20030;-76
2021/09/18 10:45:37;;;;;;;16.73;14.68;;;;;;;21.31;100.00;101715.97;2614020;39;20513;-77
2021/09/18 11:57:24;;;;;;;15.68;11.88;;;;;;;21.73;100.00;101678.06;2614023;54;20034;-78
2021/09/18 12:00:42;;;;;;;19.58;15.73;;;;;;;21.59;100.00;101679.78;2631428;36;20047;-76
2021/09/18 12:03:34;;;;;;;22.27;16.40;;;;;;;21.63;100.00;101676.47;2616831;36;20034;-74
2021/09/18 12:06:22;;;;;;;18.00;12.90;;;;;;;21.63;100.00;101679.19;2633144;36;20042;-75
2021/09/18 12:09:19;;;;;;;21.15;14.43;;;;;;;21.88;100.00;101673.41;2634099;36;20030;-75
2021/09/18 12:11:57;;;;;;;22.25;15.95;;;;;;;22.05;100.00;101680.38;2617347;36;20023;-75
2021/09/18 12:17:54;;;;;;;20.80;14.85;;;;;;;22.18;100.00;101673.34;2617179;36;20118;-74
2021/09/18 12:20:47;;;;;;;18.10;13.88;;;;;;;22.23;100.00;101668.13;2634085;36;20030;-75
2021/09/18 12:23:23;;;;;;;19.23;14.38;;;;;;;22.12;100.00;101672.22;2616118;36;20038;-75
2021/09/18 12:26:01;;;;;;;14.82;12.52;;;;;;;22.17;100.00;101666.16;2632178;36;20037;-75
2021/09/18 12:32:16;;;;;;;14.57;11.02;;;;;;;22.39;100.00;101665.19;2616503;36;20027;-77
2021/09/18 12:53:00;;;;;;;12.07;7.00;;;;;;;22.60;100.00;101658.00;2618011;36;20431;-74
2021/09/18 12:55:30;;;;;;;12.23;6.85;;;;;;;22.45;100.00;101658.03;2617008;36;20047;-75
2021/09/18 12:57:59;;;;;;;9.25;6.68;;;;;;;22.60;100.00;101660.75;2616869;36;20022;-75
2021/09/18 13:00:28;;;;;;;7.90;6.00;;;;;;;22.48;100.00;101660.44;2617377;36;20066;-73
2021/09/18 13:03:22;;;;;;;9.30;5.57;;;;;;;22.63;100.00;101663.09;2617056;36;20029;-76
2021/09/18 13:05:58;;;;;;;6.53;5.20;;;;;;;22.66;100.00;101665.44;2616730;36;20090;-75
2021/09/18 13:08:29;;;;;;;7.35;4.53;;;;;;;22.87;100.00;101663.72;2616951;36;20036;-75
2021/09/18 13:11:16;;;;;;;7.60;4.30;;;;;;;23.37;100.00;101661.78;2616816;36;20073;-76
2021/09/18 13:13:45;;;;;;;8.60;6.20;;;;;;;23.10;100.00;101655.28;2617029;36;20026;-74
2021/09/18 13:16:16;;;;;;;7.90;5.88;;;;;;;23.36;100.00;101660.09;2616918;36;20034;-75
2021/09/18 13:18:46;;;;;;;8.15;5.20;;;;;;;23.39;100.00;101656.94;2616893;36;20034;-77
2021/09/18 13:21:14;;;;;;;6.15;4.97;;;;;;;23.06;100.00;101657.53;2616459;36;20022;-74
2021/09/18 13:23:58;;;;;;;;;;;;;;;;;;;;;
2021/09/18 13:29:46;;;;;;;11.90;7.03;;;;;;;22.29;100.00;101663.75;2635226;36;20038;-75
2021/09/18 13:32:32;;;;;;;8.95;5.90;;;;;;;22.26;100.00;101651.31;2633789;36;20039;-76
2021/09/18 13:35:01;;;;;;;8.80;7.22;;;;;;;22.45;100.00;101652.56;2616584;36;20041;-74
2021/09/18 13:37:29;;;;;;;8.68;6.43;;;;;;;22.61;100.00;101648.69;2616783;36;20070;-74
2021/09/18 13:40:09;;;;;;;7.95;6.05;;;;;;;22.33;100.00;101649.47;2616788;36;20436;-73
2021/09/18 13:43:02;;;;;;;6.40;4.80;;;;;;;22.39;100.00;101642.38;2616864;36;20034;-76
2021/09/18 13:45:30;;;;;;;7.53;6.28;;;;;;;22.68;100.00;101640.53;2615082;36;20535;-74
2021/09/18 13:47:58;;;;;;;12.30;6.50;;;;;;;22.47;100.00;101641.41;2616737;36;20128;-74
2021/09/18 13:50:27;;;;;;;8.57;6.70;;;;;;;22.74;100.00;101639.75;2616379;36;20091;-74
2021/09/18 13:52:55;;;;;;;;;;;;;;;22.92;100.00;101642.88;2617210;36;20037;-74
2021/09/18 13:55:26;;;;;;;8.60;6.40;;;;;;;22.97;100.00;101633.16;2616928;36;19954;-74
2021/09/18 13:57:54;;;;;;;8.52;6.72;;;;;;;22.87;100.00;101628.03;2616816;36;20319;-74
2021/09/18 14:00:23;;;;;;;8.32;5.93;;;;;;;23.06;100.00;101630.06;2616264;36;20591;-75
2021/09/18 14:02:51;;;;;;;9.05;5.07;;;;;;;23.48;100.00;101624.66;2616871;36;20051;-75
2021/09/18 14:05:19;;;;;;;9.35;6.60;;;;;;;23.46;100.00;101625.94;2616889;36;20446;-77
2021/09/18 14:07:47;;;;;;;9.68;7.32;;;;;;;23.29;100.00;101619.91;2616923;36;20042;-75
2021/09/18 14:10:16;;;;;;;7.28;6.07;;;;;;;23.51;100.00;101617.91;2617099;36;20034;-76
2021/09/18 14:12:47;;;;;;;7.47;6.20;;;;;;;23.23;100.00;101616.94;2617200;36;20022;-77
2021/09/18 14:15:15;;;;;;;9.45;6.30;;;;;;;23.25;100.00;101613.97;2617630;36;20121;-76
2021/09/18 14:17:43;;;;;;;10.90;6.93;;;;;;;23.56;100.00;101609.91;2617188;36;20073;-76
2021/09/18 14:28:46;;;;;;;12.70;7.45;;;;;;;22.93;100.00;101605.28;2631015;36;20528;-74
2021/09/18 14:31:15;;;;;;;8.65;6.85;;;;;;;23.14;100.00;101595.31;2614629;36;20057;-75
2021/09/18 14:33:45;;;;;;;10.05;7.65;;;;;;;23.04;100.00;101596.50;2613660;36;20121;-73
2021/09/18 14:36:16;;;;;;;9.38;6.53;;;;;;;23.01;100.00;101593.28;2612114;36;20165;-74
2021/09/18 14:38:44;;;;;;;10.45;7.18;;;;;;;23.01;100.00;101591.41;2614934;36;20034;-75
2021/09/18 14:41:12;;;;;;;8.45;6.50;;;;;;;23.39;100.00;101577.25;2614764;36;20074;-76
2021/09/18 14:43:46;;;;;;;9.30;7.07;;;;;;;23.27;100.00;101592.63;2614494;36;20156;-75
2021/09/18 14:46:17;;;;;;;11.68;6.30;;;;;;;23.47;100.00;101589.13;2615708;36;20027;-74
2021/09/18 14:48:46;;;;;;;6.93;6.07;;;;;;;23.24;100.00;101590.31;2615889;36;20074;-75
2021/09/18 14:51:14;;;;;;;9.68;6.57;;;;;;;22.48;100.00;101582.75;2613842;36;20546;-75
2021/09/18 14:53:42;;;;;;;8.70;6.72;;;;;;;22.07;100.00;101584.25;2614841;36;20593;-75
2021/09/18 14:56:10;;;;;;;12.82;7.25;;;;;;;22.40;100.00;101579.09;2613419;36;20829;-75
2021/09/18 14:58:38;;;;;;;13.57;6.60;;;;;;;22.71;100.00;101575.13;2614245;36;20061;-75
2021/09/18 15:01:07;;;;;;;7.80;6.35;;;;;;;22.93;100.00;101584.16;2630780;36;20094;-73
2021/09/18 15:03:38;;;;;;;9.98;6.90;;;;;;;22.64;100.00;101568.75;2613569;36;20038;-73
2021/09/18 15:06:06;;;;;;;9.27;6.57;;;;;;;22.63;100.00;101578.03;2613620;36;20055;-77
2021/09/18 15:08:35;;;;;;;9.50;6.20;;;;;;;22.67;100.00;101579.34;2612339;36;20043;-74
2021/09/18 15:11:03;;;;;;;9.48;6.18;;;;;;;22.87;100.00;101581.38;2615602;31;20186;-74
2021/09/18 15:21:13;;;;;;;9.65;6.35;;;;;;;22.36;100.00;101577.81;2613333;54;20031;-77
2021/09/18 15:23:44;;;;;;;8.98;6.38;;;;;;;22.17;100.00;101571.06;2631969;36;20872;-74
2021/09/18 15:26:22;;;;;;;9.77;6.57;;;;;;;21.83;100.00;101578.09;2631368;36;20137;-74
2021/09/18 15:36:46;;;;;;;10.38;6.13;;;;;;;20.92;100.00;101583.78;2614463;36;20027;-76
2021/09/18 15:39:15;;;;;;;13.00;6.05;;;;;;;20.96;100.00;101582.34;2612196;31;20550;-76
2021/09/18 15:41:43;;;;;;;8.48;5.70;;;;;;;21.05;100.00;101585.00;2617109;36;20053;-74
2021/09/18 15:44:12;;;;;;;8.98;5.85;;;;;;;20.81;100.00;101586.97;2616896;36;20109;-73
2021/09/18 15:46:40;;;;;;;7.63;5.07;;;;;;;21.00;100.00;101583.69;2616840;36;20132;-78
2021/09/18 15:49:09;;;;;;;9.02;5.80;;;;;;;20.70;100.00;101588.28;2616931;36;20073;-76
2021/09/18 15:51:37;;;;;;;10.55;6.35;;;;;;;20.42;100.00;101574.28;2617092;36;20118;-73
2021/09/18 15:54:08;;;;;;;9.90;6.38;;;;;;;20.28;100.00;101581.41;2617029;36;20073;-74
2021/09/18 15:56:36;;;;;;;8.50;6.05;;;;;;;20.41;100.00;101578.91;2616897;36;20050;-76
2021/09/18 15:59:04;;;;;;;9.80;5.78;;;;;;;20.36;100.00;101575.91;2617111;36;20535;-76
2021/09/18 16:01:33;;;;;;;8.38;6.80;;;;;;;20.12;100.00;101590.59;2617053;36;20030;-77
2021/09/18 16:04:01;;;;;;;8.02;5.93;;;;;;;19.88;100.00;101591.59;2617266;31;20118;-76
2021/09/18 16:06:29;;;;;;;7.20;6.32;;;;;;;19.80;100.00;101589.75;2616952;36;20035;-74
2021/09/18 16:08:57;;;;;;;7.85;6.10;;;;;;;19.80;100.00;101594.38;2617447;36;20090;-74
2021/09/18 16:11:28;;;;;;;6.03;5.15;;;;;;;19.77;100.00;101590.09;2617418;31;20029;-76
2021/09/18 16:13:56;;;;;;;5.22;4.72;;;;;;;19.74;100.00;101587.72;2617388;36;20123;-76
2021/09/18 16:16:45;;;;;;;6.17;5.13;;;;;;;19.70;100.00;101597.28;2616043;31;20122;-76
2021/09/18 16:19:13;;;;;;;7.32;5.05;;;;;;;19.50;100.00;101596.88;2616384;36;20288;-76
2021/09/18 16:21:44;;;;;;;9.73;5.53;;;;;;;19.41;100.00;101602.38;2615033;36;20038;-75
2021/09/18 16:24:12;;;;;;;6.90;5.68;;;;;;;19.41;100.00;101596.06;2614899;36;20839;-76
2021/09/18 16:26:44;;;;;;;10.05;5.15;;;;;;;19.46;100.00;101596.38;2615849;36;20085;-74
2021/09/18 16:29:12;;;;;;;6.57;5.30;;;;;;;19.20;100.00;101596.66;2633514;36;20062;-76
2021/09/18 16:31:46;;;;;;;8.53;5.73;;;;;;;19.09;100.00;101597.84;2616269;36;20062;-74
2021/09/18 16:34:14;;;;;;;5.70;4.68;;;;;;;19.08;100.00;101594.28;2616286;36;20328;-75
2021/09/18 16:36:44;;;;;;;8.02;5.47;;;;;;;19.03;100.00;101595.84;2616784;36;20558;-73
2021/09/18 16:39:12;;;;;;;6.90;5.35;;;;;;;18.95;100.00;101593.97;2634987;36;20035;-74
2021/09/18 16:41:40;;;;;;;6.55;5.07;;;;;;;18.89;100.00;101590.06;2633993;36;20027;-75
2021/09/18 16:44:13;;;;;;;7.40;5.22;;;;;;;18.71;100.00;101594.81;2615611;36;20081;-74
2021/09/18 16:46:41;;;;;;;8.25;6.32;;;;;;;18.65;100.00;101595.50;2634033;36;20578;-75
2021/09/18 16:49:10;;;;;;;7.17;5.77;;;;;;;18.60;100.00;101595.19;2617427;36;20062;-75
2021/09/18 16:51:38;;;;;;;9.13;6.28;;;;;;;18.62;100.00;101593.97;2617020;36;20295;-76
2021/09/18 16:54:06;;;;;;;8.63;6.00;;;;;;;18.48;100.00;101592.81;2617277;36;20022;-76
2021/09/18 16:56:35;;;;;;;6.25;5.57;;;;;;;18.39;100.00;101591.09;2616763;36;20331;-74
2021/09/18 16:59:06;;;;;;;7.22;5.97;;;;;;;18.21;100.00;101592.09;2617109;36;20041;-74
2021/09/18 17:01:39;;;;;;;8.32;6.70;;;;;;;18.03;100.00;101594.09;2616750;36;20125;-75
2021/09/18 17:04:07;;;;;;;9.63;7.03;;;;;;;18.05;100.00;101594.81;2616660;36;20118;-75
2021/09/18 17:06:36;;;;;;;9.48;6.70;;;;;;;17.93;100.00;101596.13;2616718;36;20058;-74
2021/09/18 17:09:04;;;;;;;9.00;7.47;;;;;;;17.71;100.00;101595.72;2618108;31;20480;-76
2021/09/18 17:11:33;;;;;;;8.43;7.18;;;;;;;17.71;100.00;101595.72;2616918;36;20589;-75
2021/09/18 17:14:01;;;;;;;10.02;7.93;;;;;;;17.58;100.00;101595.31;2616857;36;20038;-74
2021/09/18 17:16:29;;;;;;;8.70;7.50;;;;;;;17.69;100.00;101598.56;2617307;31;20515;-74
2021/09/18 17:19:00;;;;;;;9.57;7.80;;;;;;;17.68;100.00;101609.63;2617076;36;20074;-74
2021/09/18 17:21:28;;;;;;;9.68;7.13;;;;;;;17.72;100.00;101607.44;2616941;36;20085;-76
2021/09/18 17:23:56;;;;;;;7.57;6.40;;;;;;;17.61;100.00;101605.88;2617635;31;20451;-75
2021/09/18 17:26:25;;;;;;;8.07;6.87;;;;;;;17.45;100.00;101612.13;2617558;36;20401;-75
2021/09/18 17:28:54;;;;;;;9.98;7.47;;;;;;;17.33;100.00;101611.53;2616815;36;20898;-75
2021/09/18 17:31:24;;;;;;;9.83;7.63;;;;;;;17.22;100.00;101612.66;2616155;36;20039;-73
2021/09/18 17:33:52;;;;;;;9.82;6.47;;;;;;;17.21;100.00;101612.81;2616596;36;20307;-75
2021/09/18 17:36:23;;;;;;;13.15;7.10;;;;;;;17.08;100.00;101616.84;2616444;36;20027;-76
2021/09/18 17:38:52;;;;;;;8.05;7.05;;;;;;;17.03;100.00;101613.72;2616875;36;20065;-74
2021/09/18 17:41:20;;;;;;;10.98;7.70;;;;;;;16.94;100.00;101609.25;2616629;31;20022;-76
2021/09/18 17:43:48;;;;;;;9.20;6.43;;;;;;;16.85;100.00;101611.03;2617224;36;20038;-75
2021/09/18 17:46:16;;;;;;;9.87;7.30;;;;;;;16.69;100.00;101611.75;2616327;36;20903;-75
2021/09/18 17:48:52;;;;;;;9.13;7.13;;;;;;;16.60;100.00;101604.56;2615529;36;20045;-74
2021/09/18 17:52:11;;;;;;;;;;;;;;;;;;;;;
2021/09/18 17:54:45;;;;;;;9.88;7.20;;;;;;;16.40;100.00;101609.31;2634574;36;20226;-75
2021/09/18 17:57:15;;;;;;;9.15;7.60;;;;;;;16.27;100.00;101617.88;2634929;36;20045;-73
2021/09/18 20:50:32;;;;;;;;;;;;;;;;;;;;;
